Terminal Aerodrome Forecast
Issued by NWS Cleveland, OH

Home | Current Version | Previous Version | Graphics & Text | Print | Product List | Glossary On
Versions: 1 2 3 4 5 6 7 8 9 10 11 12 13 14 15 16 17 18 19 20 21 22 23 24 25 26 27
459
FTUS41 KCLE 200921 AAB
TAFCLE
TAF AMD
KCLE 200921Z 2009/2112 16004KT P6SM SCT120 BKN180
     FM201000 17004KT P6SM VCSH BKN080
      TEMPO 2010/2012 VRB05KT -SHRAPL BKN050
     FM201500 17006KT P6SM BKN040
     FM202000 14006KT 4SM SHRA OVC025
     FM210000 08006KT 5SM -SHRA OVC008
     FM210400 35004KT 5SM BR OVC006=

USA.gov is the U.S. government's official web portal to all federal, state and local government web resources and services.